Time;durP1;ratioP1;P1;durP2;ratioP2;P2;SDS_P1;SDS_P2;PMS_P1;PMS_P2;Temp;Humidity;BMP_temperature;BMP_pressure;BME280_temperature;BME280_humidity;BME280_pressure;Samples;Min_cycle;Max_cycle;Signal;HPM_P1;HPM_P2
2022/04/23 00:01:31;;;;;;;7.82;4.88;;;23.10;41.70;;;;;;6159619;28;80424;-69
2022/04/23 00:04:32;;;;;;;9.05;5.05;;;23.10;41.80;;;;;;6159732;28;80338;-65
2022/04/23 00:07:33;;;;;;;8.00;4.90;;;23.10;41.90;;;;;;6159136;28;80873;-66
2022/04/23 00:10:33;;;;;;;6.90;4.70;;;23.20;41.90;;;;;;6160190;28;80444;-64
2022/04/23 00:13:34;;;;;;;7.35;4.90;;;23.10;41.90;;;;;;6159708;28;81590;-64
2022/04/23 00:16:34;;;;;;;8.60;4.93;;;23.20;41.90;;;;;;6159512;28;81333;-65
2022/04/23 00:19:35;;;;;;;6.38;4.65;;;23.10;41.90;;;;;;6159786;28;80461;-64
2022/04/23 00:22:36;;;;;;;6.82;4.75;;;23.10;41.90;;;;;;6159187;28;81621;-67
2022/04/23 00:25:40;;;;;;;6.28;4.70;;;23.10;41.90;;;;;;6158016;28;83659;-65
2022/04/23 00:28:40;;;;;;;7.88;5.20;;;23.10;42.00;;;;;;6159878;28;80415;-66
2022/04/23 00:31:41;;;;;;;6.82;5.32;;;23.10;41.90;;;;;;6159347;28;80913;-65
2022/04/23 00:34:42;;;;;;;9.35;6.20;;;23.10;41.80;;;;;;6159197;28;80835;-65
2022/04/23 00:37:43;;;;;;;7.63;5.45;;;23.10;41.90;;;;;;6158402;28;81290;-65
2022/04/23 00:40:43;;;;;;;8.40;5.95;;;23.10;42.00;;;;;;6159000;28;80423;-65
2022/04/23 00:43:44;;;;;;;7.78;5.70;;;23.10;42.00;;;;;;6158317;28;80592;-65
2022/04/23 00:46:44;;;;;;;7.70;5.32;;;23.10;41.90;;;;;;6158790;28;81603;-65
2022/04/23 00:49:47;;;;;;;9.13;6.43;;;23.10;42.00;;;;;;6133551;28;81438;-64
2022/04/23 00:52:48;;;;;;;9.50;6.32;;;23.10;42.00;;;;;;6144579;28;86218;-65
2022/04/23 00:55:48;;;;;;;7.75;6.00;;;23.10;42.00;;;;;;6163102;28;80360;-65
2022/04/23 00:58:49;;;;;;;8.32;5.57;;;23.10;42.00;;;;;;6159740;28;80235;-65
2022/04/23 01:01:53;;;;;;;8.35;6.07;;;23.10;42.00;;;;;;6162839;28;80431;-64
2022/04/23 01:04:53;;;;;;;8.73;6.22;;;23.10;41.90;;;;;;6140374;28;80515;-66
2022/04/23 01:07:55;;;;;;;10.38;6.45;;;23.10;41.80;;;;;;6139740;28;80820;-65
2022/04/23 01:10:55;;;;;;;8.10;5.63;;;23.10;41.80;;;;;;6161379;28;81629;-65
2022/04/23 01:13:56;;;;;;;8.68;6.07;;;23.10;41.80;;;;;;6162935;28;80288;-67
2022/04/23 01:16:57;;;;;;;9.70;6.68;;;23.10;41.80;;;;;;6162868;28;80818;-66
2022/04/23 01:19:58;;;;;;;8.43;5.72;;;23.10;41.80;;;;;;6162168;28;80457;-65
2022/04/23 01:22:58;;;;;;;10.00;6.30;;;23.10;41.80;;;;;;6158769;28;80585;-65
2022/04/23 01:25:59;;;;;;;9.07;5.85;;;23.10;41.80;;;;;;6138640;28;80271;-66
2022/04/23 01:29:00;;;;;;;9.00;5.97;;;23.10;41.80;;;;;;6150953;28;80532;-66
2022/04/23 01:32:01;;;;;;;6.18;4.82;;;23.10;41.80;;;;;;6138395;28;80419;-66
2022/04/23 01:35:01;;;;;;;7.32;5.35;;;23.10;41.80;;;;;;6137874;28;80409;-65
2022/04/23 01:38:02;;;;;;;7.10;5.05;;;23.10;41.80;;;;;;6145709;28;80218;-65
2022/04/23 01:41:02;;;;;;;9.18;5.53;;;23.10;41.70;;;;;;6162258;28;80529;-65
2022/04/23 01:44:03;;;;;;;6.95;5.05;;;23.10;41.80;;;;;;6153447;28;81249;-65
2022/04/23 01:47:03;;;;;;;8.27;5.78;;;23.10;41.80;;;;;;6138495;28;80550;-66
2022/04/23 01:50:04;;;;;;;10.77;6.05;;;23.10;41.80;;;;;;6154233;28;80325;-66
2022/04/23 01:53:05;;;;;;;7.90;5.35;;;23.10;42.00;;;;;;6161615;28;80526;-66
2022/04/23 01:56:05;;;;;;;8.40;5.38;;;23.10;41.90;;;;;;6161529;28;80010;-66
2022/04/23 01:59:06;;;;;;;7.72;5.75;;;23.10;42.00;;;;;;6153981;28;80636;-66
2022/04/23 02:02:07;;;;;;;8.88;5.43;;;23.10;42.50;;;;;;6160114;28;80004;-69
2022/04/23 02:05:07;;;;;;;11.00;5.22;;;23.10;41.80;;;;;;6150373;28;83504;-65
2022/04/23 02:08:09;;;;;;;8.32;5.22;;;23.00;41.60;;;;;;6136301;28;82634;-67
2022/04/23 02:11:09;;;;;;;8.27;5.25;;;23.10;41.80;;;;;;6140575;28;80525;-67
2022/04/23 02:14:10;;;;;;;7.97;5.55;;;23.10;41.80;;;;;;6141054;28;80697;-67
2022/04/23 02:17:10;;;;;;;8.95;5.50;;;23.10;41.70;;;;;;6162177;28;80498;-67
2022/04/23 02:20:11;;;;;;;7.68;5.43;;;23.10;41.80;;;;;;6149006;28;80335;-67
2022/04/23 02:23:11;;;;;;;7.80;5.28;;;23.10;41.70;;;;;;6137502;28;80354;-67
2022/04/23 02:26:12;;;;;;;7.18;5.13;;;23.10;41.60;;;;;;6157244;28;80136;-68
2022/04/23 02:29:12;;;;;;;7.32;4.95;;;23.10;41.40;;;;;;6159207;28;80787;-67
2022/04/23 02:32:13;;;;;;;7.88;5.18;;;23.10;41.40;;;;;;6137949;28;80425;-67
2022/04/23 02:35:15;;;;;;;8.43;5.40;;;23.10;41.30;;;;;;6147844;28;80311;-67
2022/04/23 02:38:17;;;;;;;9.05;5.10;;;23.00;41.20;;;;;;6161796;28;80452;-67
2022/04/23 02:41:18;;;;;;;7.63;4.90;;;23.00;41.20;;;;;;6161518;28;80509;-67
2022/04/23 02:44:19;;;;;;;9.10;5.70;;;23.10;41.20;;;;;;6160937;28;80315;-67
2022/04/23 02:47:19;;;;;;;8.60;5.10;;;23.10;41.20;;;;;;6160389;28;83256;-66
2022/04/23 02:50:20;;;;;;;6.35;4.88;;;23.10;41.20;;;;;;6161480;28;80197;-66
2022/04/23 02:53:20;;;;;;;10.07;5.88;;;23.10;41.20;;;;;;6144407;28;80086;-67
2022/04/23 02:56:21;;;;;;;8.50;5.88;;;23.10;41.30;;;;;;6137061;28;81841;-67
2022/04/23 02:59:22;;;;;;;10.05;5.80;;;23.10;41.20;;;;;;6152537;28;80123;-66
2022/04/23 03:02:22;;;;;;;7.72;5.80;;;23.10;41.20;;;;;;6137316;28;80369;-66
2022/04/23 03:05:23;;;;;;;7.93;4.82;;;23.00;41.00;;;;;;6142750;28;81558;-67
2022/04/23 03:08:24;;;;;;;7.18;5.03;;;23.00;41.10;;;;;;6161580;28;80305;-66
2022/04/23 03:11:24;;;;;;;9.40;5.63;;;23.00;41.00;;;;;;6160809;28;80784;-67
2022/04/23 03:14:25;;;;;;;7.72;5.10;;;23.00;41.10;;;;;;6160908;28;80381;-66
2022/04/23 03:17:26;;;;;;;7.85;5.82;;;23.00;41.10;;;;;;6160639;28;80687;-68
2022/04/23 03:20:26;;;;;;;9.27;5.82;;;23.00;41.20;;;;;;6156555;28;80602;-67
2022/04/23 03:23:27;;;;;;;9.07;6.15;;;23.00;41.20;;;;;;6136724;28;79910;-67
2022/04/23 03:26:27;;;;;;;7.10;5.30;;;23.00;41.30;;;;;;6139163;28;80572;-67
2022/04/23 03:29:28;;;;;;;10.35;6.15;;;23.10;41.30;;;;;;6136970;28;80261;-67
2022/04/23 03:32:29;;;;;;;7.70;5.15;;;23.00;41.20;;;;;;6156095;28;80721;-67
2022/04/23 03:35:29;;;;;;;6.03;4.78;;;23.00;41.20;;;;;;6158461;28;80497;-67
2022/04/23 03:38:31;;;;;;;6.88;5.38;;;23.00;41.20;;;;;;6138611;28;80420;-67
2022/04/23 03:41:34;;;;;;;7.53;5.32;;;23.00;41.40;;;;;;6150389;28;80286;-67
2022/04/23 03:44:34;;;;;;;7.97;5.53;;;23.00;41.40;;;;;;6136034;28;80420;-67
2022/04/23 03:47:35;;;;;;;6.47;4.72;;;23.00;41.50;;;;;;6137305;28;79898;-67
2022/04/23 03:50:35;;;;;;;8.18;5.68;;;23.00;41.50;;;;;;6160060;28;80122;-68
2022/04/23 03:53:36;;;;;;;6.13;5.00;;;23.00;40.90;;;;;;6158336;28;80240;-67
2022/04/23 03:56:37;;;;;;;8.57;5.43;;;23.00;40.90;;;;;;6145074;28;80525;-68
2022/04/23 03:59:38;;;;;;;8.98;5.18;;;23.00;41.10;;;;;;6150111;28;80813;-67
2022/04/23 04:02:38;;;;;;;7.97;5.15;;;23.00;41.00;;;;;;6144782;28;81552;-68
2022/04/23 04:05:39;;;;;;;8.40;4.50;;;23.00;41.30;;;;;;6160358;28;80602;-66
2022/04/23 04:08:39;;;;;;;7.25;4.72;;;23.00;41.90;;;;;;6158395;28;81593;-67
2022/04/23 04:14:59;;;;;;;5.88;4.32;;;23.00;42.60;;;;;;6150484;28;80321;-66
2022/04/23 04:18:00;;;;;;;11.27;4.50;;;23.00;42.10;;;;;;6141789;28;83687;-65
2022/04/23 04:21:00;;;;;;;6.53;4.25;;;23.00;42.10;;;;;;6136058;28;80373;-73
2022/04/23 04:24:01;;;;;;;13.65;5.65;;;23.00;42.20;;;;;;6157275;28;81724;-68
2022/04/23 04:27:01;;;;;;;7.97;5.38;;;23.00;42.20;;;;;;6158975;28;80577;-65
2022/04/23 04:30:02;;;;;;;7.95;5.13;;;23.00;42.90;;;;;;6159030;28;81405;-66
2022/04/23 04:33:03;;;;;;;12.40;4.82;;;23.00;42.70;;;;;;6157529;28;81605;-65
2022/04/23 04:36:03;;;;;;;7.78;5.10;;;23.00;42.90;;;;;;6158343;28;80533;-67
2022/04/23 04:39:04;;;;;;;9.10;5.07;;;23.00;43.10;;;;;;6159348;28;80269;-68
2022/04/23 04:42:04;;;;;;;9.68;4.43;;;23.10;42.90;;;;;;6154902;28;81169;-67
2022/04/23 04:45:05;;;;;;;7.30;4.82;;;23.10;42.90;;;;;;6135193;28;80324;-67
2022/04/23 04:48:05;;;;;;;10.38;5.07;;;23.20;43.00;;;;;;6141014;28;82622;-66
2022/04/23 04:51:06;;;;;;;8.27;5.00;;;23.20;43.30;;;;;;6158134;28;80606;-68
2022/04/23 04:54:06;;;;;;;9.93;5.43;;;23.20;43.20;;;;;;6159115;28;80309;-66
2022/04/23 04:57:07;;;;;;;8.25;4.90;;;23.20;43.50;;;;;;6142051;28;80439;-65
2022/04/23 05:00:07;;;;;;;6.45;4.32;;;23.20;43.40;;;;;;6135338;28;80407;-66
2022/04/23 05:03:08;;;;;;;7.68;4.72;;;23.20;43.60;;;;;;6134391;28;80804;-66
2022/04/23 05:06:08;;;;;;;6.43;4.47;;;23.30;43.50;;;;;;6135047;28;80043;-66
2022/04/23 05:09:09;;;;;;;7.78;4.43;;;23.30;43.60;;;;;;6134783;28;81685;-65
2022/04/23 05:12:09;;;;;;;8.75;4.72;;;23.30;43.50;;;;;;6134862;28;80679;-66
2022/04/23 05:15:11;;;;;;;6.57;4.72;;;23.40;43.50;;;;;;6132793;28;83388;-66
2022/04/23 05:18:12;;;;;;;7.35;4.63;;;23.40;43.40;;;;;;6142006;28;80598;-65
2022/04/23 05:21:12;;;;;;;8.10;5.20;;;23.40;43.40;;;;;;6158327;28;80595;-66
2022/04/23 05:24:13;;;;;;;8.55;5.10;;;23.40;43.30;;;;;;6146487;28;81248;-66
2022/04/23 05:27:13;;;;;;;7.32;4.68;;;23.40;43.20;;;;;;6158932;28;80867;-67
2022/04/23 05:30:14;;;;;;;7.75;4.65;;;23.40;43.10;;;;;;6136071;28;81359;-67
2022/04/23 05:33:14;;;;;;;7.38;5.40;;;23.40;43.70;;;;;;6137294;28;80638;-67
2022/04/23 05:36:15;;;;;;;7.80;5.03;;;23.40;43.30;;;;;;6133614;28;80256;-66
2022/04/23 05:39:15;;;;;;;10.75;5.40;;;23.40;43.10;;;;;;6154615;28;80435;-67
2022/04/23 05:42:16;;;;;;;7.57;4.97;;;23.40;43.00;;;;;;6144129;28;80632;-68
2022/04/23 05:45:16;;;;;;;8.50;5.50;;;23.50;43.00;;;;;;6142167;28;80722;-68
2022/04/23 05:48:17;;;;;;;6.30;4.47;;;23.40;43.00;;;;;;6139465;28;81303;-66
2022/04/23 05:51:17;;;;;;;6.50;4.97;;;23.40;42.90;;;;;;6156418;28;80737;-68
2022/04/23 05:54:18;;;;;;;7.50;4.72;;;23.50;43.00;;;;;;6151480;28;82149;-67
2022/04/23 05:57:19;;;;;;;7.63;5.07;;;23.50;42.90;;;;;;6138078;28;80720;-69
2022/04/23 06:00:19;;;;;;;9.88;5.38;;;23.50;43.00;;;;;;6142093;28;80386;-67
2022/04/23 06:03:20;;;;;;;8.73;4.68;;;23.50;43.20;;;;;;6138216;28;81642;-68
2022/04/23 06:06:22;;;;;;;10.18;4.97;;;23.50;43.10;;;;;;6145742;28;80263;-67
2022/04/23 06:09:23;;;;;;;8.43;4.82;;;23.50;43.10;;;;;;6143154;28;80442;-67
2022/04/23 06:12:24;;;;;;;8.98;5.30;;;23.50;43.00;;;;;;6161209;28;80987;-69
2022/04/23 06:15:24;;;;;;;9.68;5.05;;;23.50;42.90;;;;;;6146056;28;80630;-67
2022/04/23 06:18:25;;;;;;;9.80;5.55;;;23.50;42.80;;;;;;6144127;28;80340;-68
2022/04/23 06:21:25;;;;;;;9.90;5.07;;;23.50;43.00;;;;;;6141567;28;81015;-68
2022/04/23 06:24:26;;;;;;;6.88;4.95;;;23.50;43.00;;;;;;6155846;28;80933;-68
2022/04/23 06:27:26;;;;;;;7.40;4.32;;;23.50;43.00;;;;;;6145269;28;80531;-67
2022/04/23 06:30:27;;;;;;;5.13;4.18;;;23.60;43.10;;;;;;6141902;28;81113;-70
2022/04/23 06:33:27;;;;;;;7.65;4.93;;;23.60;43.10;;;;;;6142334;28;81087;-71
2022/04/23 06:36:28;;;;;;;5.63;4.05;;;23.60;43.30;;;;;;6148257;28;80250;-67
2022/04/23 06:39:28;;;;;;;10.27;4.82;;;23.70;43.30;;;;;;6152914;28;80419;-67
2022/04/23 06:42:29;;;;;;;9.77;5.13;;;23.70;43.40;;;;;;6152313;28;80646;-69
2022/04/23 06:45:30;;;;;;;8.10;5.00;;;23.70;43.40;;;;;;6145926;28;81186;-68
2022/04/23 06:48:30;;;;;;;6.78;3.90;;;23.70;43.40;;;;;;6146553;28;80324;-68
2022/04/23 06:51:31;;;;;;;7.38;4.25;;;23.70;43.40;;;;;;6152370;28;81683;-68
2022/04/23 06:54:31;;;;;;;7.47;4.43;;;23.70;43.20;;;;;;6156750;28;80313;-66
2022/04/23 06:57:32;;;;;;;7.35;4.10;;;23.80;43.30;;;;;;6136538;28;80528;-67
2022/04/23 07:00:32;;;;;;;7.57;3.78;;;23.80;43.40;;;;;;6140039;28;80699;-67
2022/04/23 07:03:33;;;;;;;7.05;4.45;;;23.80;43.40;;;;;;6152593;28;80297;-68
2022/04/23 07:06:33;;;;;;;5.55;4.32;;;23.80;44.00;;;;;;6154432;28;80764;-74
2022/04/23 07:09:34;;;;;;;10.77;4.70;;;23.80;43.30;;;;;;6150638;28;81380;-74
2022/04/23 07:12:34;;;;;;;7.00;3.72;;;23.90;43.30;;;;;;6144212;28;80615;-78
2022/04/23 07:15:35;;;;;;;9.63;4.07;;;23.90;43.30;;;;;;6152416;28;81406;-70
2022/04/23 07:18:39;;;;;;;8.23;3.85;;;23.90;43.30;;;;;;6154476;28;81651;-65
2022/04/23 07:21:39;;;;;;;8.00;3.78;;;23.90;43.50;;;;;;6143171;28;81625;-67
2022/04/23 07:24:40;;;;;;;7.18;4.15;;;23.90;43.30;;;;;;6145119;28;80827;-65
2022/04/23 07:27:40;;;;;;;5.15;4.00;;;23.90;43.30;;;;;;6143011;28;80284;-66
2022/04/23 07:30:42;;;;;;;5.38;4.22;;;23.90;43.20;;;;;;6150196;28;80393;-66
2022/04/23 07:40:21;;;;;;;6.93;3.40;;;23.90;43.10;;;;;;6135746;28;81243;-64
2022/04/23 07:43:21;;;;;;;4.82;3.60;;;23.90;42.90;;;;;;6135872;28;80896;-65
2022/04/23 07:46:22;;;;;;;6.03;3.40;;;24.00;42.80;;;;;;6149611;28;80550;-65
2022/04/23 07:49:22;;;;;;;6.30;3.40;;;24.00;42.80;;;;;;6125556;28;81985;-66
2022/04/23 07:52:23;;;;;;;5.07;3.58;;;23.90;42.50;;;;;;6154253;28;87036;-67
2022/04/23 07:55:23;;;;;;;4.55;3.58;;;24.00;42.50;;;;;;6158412;28;81004;-67
2022/04/23 07:58:24;;;;;;;6.50;3.50;;;23.90;42.60;;;;;;6150656;28;81561;-66
2022/04/23 08:01:24;;;;;;;6.05;3.80;;;23.90;42.50;;;;;;6148732;28;80861;-67
2022/04/23 08:04:25;;;;;;;8.98;3.53;;;24.00;42.50;;;;;;6157701;28;80141;-67
2022/04/23 08:07:25;;;;;;;4.50;3.05;;;24.00;42.30;;;;;;6155185;28;80746;-67
2022/04/23 08:10:26;;;;;;;5.68;3.95;;;24.00;42.30;;;;;;6135854;28;80710;-67
2022/04/23 08:13:28;;;;;;;5.70;2.80;;;24.00;42.10;;;;;;6142477;28;80404;-68
2022/04/23 08:16:28;;;;;;;29.70;14.75;;;24.00;42.10;;;;;;6156716;28;82879;-67
2022/04/23 08:19:29;;;;;;;194.80;94.30;;;23.90;42.00;;;;;;6133243;28;83439;-67
2022/04/23 08:22:30;;;;;;;165.13;73.80;;;23.90;42.80;;;;;;6143898;28;82990;-67
2022/04/23 08:25:30;;;;;;;184.95;91.13;;;23.90;42.20;;;;;;6155398;28;83578;-74
2022/04/23 08:31:51;;;;;;;177.88;75.70;;;24.00;42.10;;;;;;6142486;28;83550;-68
2022/04/23 08:34:53;;;;;;;178.20;79.82;;;24.10;42.00;;;;;;6130171;28;84226;-68
2022/04/23 08:37:54;;;;;;;124.72;59.38;;;24.10;42.00;;;;;;6153702;28;84189;-66
2022/04/23 08:40:54;;;;;;;111.97;51.13;;;24.00;42.00;;;;;;6156030;28;83262;-68
2022/04/23 08:43:55;;;;;;;100.50;44.55;;;24.00;41.70;;;;;;6149334;28;82859;-68
2022/04/23 08:46:55;;;;;;;89.97;41.05;;;24.00;41.40;;;;;;6135720;28;83402;-69
2022/04/23 08:49:56;;;;;;;89.47;40.20;;;24.00;41.90;;;;;;6155792;28;82896;-68
2022/04/23 08:52:57;;;;;;;83.82;40.35;;;24.00;41.90;;;;;;6145904;28;83291;-69
2022/04/23 08:55:59;;;;;;;82.22;33.85;;;24.00;41.80;;;;;;6148105;28;82983;-69
2022/04/23 08:58:59;;;;;;;77.13;35.05;;;24.00;42.40;;;;;;6148855;28;84046;-67
2022/04/23 09:02:01;;;;;;;63.90;29.42;;;24.00;41.80;;;;;;6152560;28;83354;-65
2022/04/23 09:05:01;;;;;;;70.57;29.45;;;24.10;42.10;;;;;;6149429;28;83113;-67
2022/04/23 09:08:02;;;;;;;59.53;27.63;;;24.10;42.20;;;;;;6155038;28;83075;-67
2022/04/23 09:11:02;;;;;;;58.92;25.80;;;24.10;42.00;;;;;;6155597;28;83120;-68
2022/04/23 09:14:03;;;;;;;55.60;25.13;;;24.20;42.20;;;;;;6152399;28;83979;-72
2022/04/23 09:23:43;;;;;;;31.75;15.60;;;24.10;40.20;;;;;;6155243;28;82991;-72
2022/04/23 09:26:44;;;;;;;29.30;14.73;;;24.10;40.10;;;;;;6158170;28;83086;-69
2022/04/23 09:29:45;;;;;;;31.75;13.85;;;24.10;40.50;;;;;;6155406;28;83187;-70
2022/04/23 09:32:45;;;;;;;24.85;12.50;;;24.10;40.40;;;;;;6155565;28;83198;-70
2022/04/23 09:35:46;;;;;;;27.45;12.18;;;24.10;40.40;;;;;;6134968;28;82892;-70
2022/04/23 09:38:46;;;;;;;22.92;11.23;;;24.10;40.20;;;;;;6148303;28;83441;-67
2022/04/23 09:41:47;;;;;;;21.05;10.05;;;24.10;40.10;;;;;;6157563;28;82909;-68
2022/04/23 09:44:47;;;;;;;15.40;8.88;;;24.20;40.10;;;;;;6156853;28;83065;-70
2022/04/23 09:47:48;;;;;;;15.95;7.85;;;24.20;40.10;;;;;;6157033;28;83494;-68
2022/04/23 09:50:49;;;;;;;12.95;6.80;;;24.20;39.80;;;;;;6154884;28;83023;-69
2022/04/23 09:53:50;;;;;;;10.25;5.60;;;24.10;39.40;;;;;;6150641;28;80305;-69
2022/04/23 09:56:51;;;;;;;11.85;6.30;;;24.10;39.50;;;;;;6145141;28;80664;-69
2022/04/23 09:59:52;;;;;;;8.68;5.10;;;24.10;39.20;;;;;;6159921;28;82217;-68
2022/04/23 10:02:52;;;;;;;8.15;4.90;;;24.10;39.00;;;;;;6159226;28;80628;-67
2022/04/23 10:05:53;;;;;;;12.20;5.05;;;24.10;39.10;;;;;;6159880;28;87329;-69
2022/04/23 10:08:55;;;;;;;9.35;4.78;;;24.10;38.50;;;;;;6158486;28;80539;-64
2022/04/23 10:11:55;;;;;;;6.07;3.85;;;24.10;38.50;;;;;;6167268;28;81474;-70
2022/04/23 10:14:56;;;;;;;12.50;5.82;;;24.10;39.20;;;;;;6156439;28;80413;-70
2022/04/23 10:17:56;;;;;;;24.08;8.48;;;24.10;40.90;;;;;;6162046;28;80793;-68
2022/04/23 10:21:00;;;;;;;24.33;8.18;;;24.20;40.80;;;;;;6153894;28;81446;-69
2022/04/23 10:24:01;;;;;;;35.78;10.40;;;24.20;41.00;;;;;;6158073;28;80806;-69
2022/04/23 10:27:07;;;;;;;26.38;7.68;;;24.20;40.90;;;;;;6153727;28;83289;-66
2022/04/23 10:30:07;;;;;;;25.60;8.20;;;24.00;39.10;;;;;;6157670;28;83348;-70
2022/04/23 10:33:08;;;;;;;45.75;12.13;;;24.00;39.80;;;;;;6159696;28;80713;-67
2022/04/23 10:36:09;;;;;;;41.30;10.52;;;24.10;41.90;;;;;;6157087;28;82905;-68
2022/04/23 10:39:10;;;;;;;26.60;9.57;;;24.10;40.70;;;;;;6154149;28;82934;-68
2022/04/23 10:42:10;;;;;;;20.70;7.22;;;24.10;41.40;;;;;;6158051;28;82061;-68
2022/04/23 10:45:11;;;;;;;11.98;4.97;;;24.20;39.50;;;;;;6155645;28;81595;-68
2022/04/23 10:48:11;;;;;;;11.40;4.93;;;24.00;37.60;;;;;;6159589;28;80577;-66
2022/04/23 10:51:15;;;;;;;9.63;3.88;;;24.00;38.10;;;;;;6155357;28;80753;-67
2022/04/23 10:54:21;;;;;;;13.65;4.40;;;24.10;38.40;;;;;;6154748;28;81182;-67
2022/04/23 10:57:23;;;;;;;6.50;3.42;;;24.10;37.60;;;;;;6159089;28;81172;-67
2022/04/23 11:00:24;;;;;;;6.97;3.20;;;24.00;36.50;;;;;;6152843;28;80539;-69
2022/04/23 11:03:25;;;;;;;5.60;3.25;;;24.00;36.20;;;;;;6157578;28;82235;-69
2022/04/23 11:13:04;;;;;;;6.47;3.45;;;23.00;35.60;;;;;;6155318;28;80028;-76
2022/04/23 11:16:05;;;;;;;2.65;2.42;;;22.60;35.30;;;;;;6155802;28;80290;-68
2022/04/23 11:19:07;;;;;;;2.60;2.40;;;22.60;36.00;;;;;;6157115;28;80348;-73
2022/04/23 11:22:09;;;;;;;5.10;2.85;;;22.90;36.30;;;;;;6156257;28;81484;-75
2022/04/23 11:25:09;;;;;;;7.25;2.80;;;23.20;36.70;;;;;;6154117;28;80351;-68
2022/04/23 11:28:10;;;;;;;4.05;2.60;;;23.10;35.70;;;;;;6157543;28;80419;-69
2022/04/23 11:31:11;;;;;;;3.58;2.80;;;23.20;36.30;;;;;;6156778;28;80493;-69
2022/04/23 11:34:12;;;;;;;3.30;2.80;;;23.40;36.10;;;;;;6155828;28;80468;-69
2022/04/23 11:37:12;;;;;;;2.83;2.55;;;23.40;36.20;;;;;;6156313;28;81145;-68
2022/04/23 11:40:13;;;;;;;3.65;3.20;;;23.50;36.00;;;;;;6155969;28;81343;-69
2022/04/23 11:43:13;;;;;;;3.95;2.90;;;23.50;35.10;;;;;;6155873;28;80619;-71
2022/04/23 11:46:14;;;;;;;3.42;2.83;;;23.50;35.00;;;;;;6154809;28;82942;-70
2022/04/23 11:49:14;;;;;;;5.28;2.75;;;23.50;35.20;;;;;;6152412;28;80881;-70
2022/04/23 11:52:16;;;;;;;4.03;2.85;;;23.60;35.40;;;;;;6154894;28;80231;-70
2022/04/23 11:55:16;;;;;;;2.88;2.45;;;23.60;35.80;;;;;;6157106;28;80924;-70
2022/04/23 11:58:17;;;;;;;3.78;2.70;;;23.70;36.10;;;;;;6149921;28;81810;-69
2022/04/23 12:01:19;;;;;;;3.80;2.95;;;23.70;35.80;;;;;;6148316;28;81170;-68
2022/04/23 12:04:19;;;;;;;4.20;3.10;;;23.70;35.80;;;;;;6156936;28;80526;-72
2022/04/23 12:07:20;;;;;;;3.58;3.00;;;23.80;36.00;;;;;;6155034;28;81745;-76
2022/04/23 12:10:20;;;;;;;4.88;3.10;;;23.80;36.20;;;;;;6156552;28;80774;-74
2022/04/23 12:13:21;;;;;;;3.38;2.90;;;23.90;36.40;;;;;;6151110;28;80334;-71
2022/04/23 12:16:21;;;;;;;4.00;2.85;;;23.80;36.40;;;;;;6150202;28;83542;-74
2022/04/23 12:19:22;;;;;;;4.15;2.80;;;23.90;36.70;;;;;;6155761;28;80564;-79
2022/04/23 12:22:23;;;;;;;5.05;3.03;;;23.90;36.90;;;;;;6156272;28;80891;-74
2022/04/23 12:25:25;;;;;;;6.18;3.67;;;24.00;36.90;;;;;;6151816;28;85196;-75
2022/04/23 12:41:43;;;;;;;4.95;3.20;;;24.10;37.00;;;;;;6155377;28;80756;-74
2022/04/23 12:44:46;;;;;;;6.18;3.38;;;24.10;37.00;;;;;;6155777;28;80784;-75
2022/04/23 12:47:47;;;;;;;4.22;3.10;;;24.10;37.10;;;;;;6152602;28;87435;-69
2022/04/23 12:50:50;;;;;;;3.08;2.78;;;24.00;36.90;;;;;;6161400;28;80659;-73
2022/04/23 12:53:50;;;;;;;4.78;3.28;;;24.10;37.20;;;;;;6163126;28;80097;-71
2022/04/23 12:56:51;;;;;;;4.32;3.17;;;24.10;37.40;;;;;;6161828;28;80294;-73
2022/04/23 12:59:52;;;;;;;4.25;3.10;;;24.20;37.30;;;;;;6163572;28;80308;-75
2022/04/23 13:03:00;;;;;;;4.00;3.28;;;24.20;37.60;;;;;;6164099;28;80552;-77
2022/04/23 13:06:01;;;;;;;3.17;2.72;;;24.10;37.60;;;;;;6161569;28;81797;-72
2022/04/23 13:09:02;;;;;;;3.63;3.13;;;24.20;37.90;;;;;;6163300;28;80318;-71
2022/04/23 13:12:02;;;;;;;5.22;3.20;;;24.10;38.20;;;;;;6165655;28;80259;-73
2022/04/23 13:15:04;;;;;;;3.55;3.22;;;24.10;38.40;;;;;;6163079;28;80583;-71
2022/04/23 13:18:05;;;;;;;4.25;3.20;;;24.10;38.30;;;;;;6161062;28;80719;-69
2022/04/23 13:21:07;;;;;;;4.10;2.63;;;24.10;38.20;;;;;;6162673;28;80223;-69
2022/04/23 13:24:07;;;;;;;4.53;3.25;;;24.10;38.20;;;;;;6155070;28;80718;-67
2022/04/23 13:27:08;;;;;;;4.75;3.08;;;24.10;38.40;;;;;;6157052;28;81523;-68
2022/04/23 13:30:09;;;;;;;4.78;3.20;;;24.10;38.50;;;;;;6159572;28;80516;-68
2022/04/23 13:33:09;;;;;;;5.18;3.05;;;24.10;38.40;;;;;;6160718;28;80313;-68
2022/04/23 13:36:10;;;;;;;3.75;3.30;;;24.10;38.10;;;;;;6159746;28;81533;-67
2022/04/23 13:39:10;;;;;;;3.25;2.92;;;24.10;38.20;;;;;;6158484;28;81594;-68
2022/04/23 13:42:11;;;;;;;4.57;3.25;;;24.10;38.30;;;;;;6160420;28;87551;-69
2022/04/23 13:45:12;;;;;;;10.23;3.65;;;24.10;38.20;;;;;;6161155;28;80375;-70
2022/04/23 13:48:13;;;;;;;7.53;3.63;;;24.10;38.00;;;;;;6137550;28;80820;-70
2022/04/23 13:51:14;;;;;;;4.55;3.45;;;24.10;38.40;;;;;;6143761;28;80513;-69
2022/04/23 13:54:14;;;;;;;5.45;3.05;;;24.00;38.30;;;;;;6135838;28;81550;-69
2022/04/23 13:57:15;;;;;;;5.07;3.78;;;24.00;38.10;;;;;;6161233;28;80793;-68
2022/04/23 14:00:15;;;;;;;7.05;4.97;;;23.90;38.10;;;;;;6149463;28;80513;-70
2022/04/23 14:10:07;;;;;;;66.82;30.98;;;23.90;37.70;;;;;;6157964;28;84011;-69
2022/04/23 14:13:07;;;;;;;103.70;46.92;;;23.90;37.60;;;;;;6157616;28;83032;-65
2022/04/23 14:16:09;;;;;;;139.10;64.05;;;23.90;37.70;;;;;;6157686;28;83021;-67
2022/04/23 14:19:10;;;;;;;94.30;43.05;;;23.90;37.60;;;;;;6157095;28;83258;-69
2022/04/23 14:22:10;;;;;;;91.13;42.47;;;23.90;37.30;;;;;;6157552;28;82911;-71
2022/04/23 14:25:11;;;;;;;89.47;41.20;;;23.90;37.20;;;;;;6143766;28;85429;-69
2022/04/23 14:28:11;;;;;;;63.25;29.65;;;23.90;37.50;;;;;;6151096;28;83211;-71
2022/04/23 14:31:12;;;;;;;56.65;25.67;;;23.90;37.20;;;;;;6156680;28;84019;-69
2022/04/23 14:34:13;;;;;;;49.72;22.33;;;23.90;37.30;;;;;;6156238;28;83582;-70
2022/04/23 14:37:13;;;;;;;39.95;19.95;;;23.80;37.40;;;;;;6154860;28;83526;-69
2022/04/23 14:40:14;;;;;;;35.28;16.90;;;23.90;37.50;;;;;;6138981;28;83808;-69
2022/04/23 14:43:16;;;;;;;28.75;15.35;;;23.90;37.60;;;;;;6133404;28;84398;-68
2022/04/23 14:46:17;;;;;;;29.40;13.70;;;23.80;37.70;;;;;;6122994;28;87373;-69
2022/04/23 14:49:18;;;;;;;28.27;13.27;;;23.80;37.60;;;;;;6133704;28;83058;-66
2022/04/23 14:55:37;;;;;;;17.42;9.63;;;23.80;37.80;;;;;;6132552;28;83173;-68
2022/04/23 14:58:38;;;;;;;17.77;8.43;;;23.90;37.60;;;;;;6137652;28;82936;-69
2022/04/23 15:01:40;;;;;;;16.25;8.07;;;23.80;37.80;;;;;;6140323;28;80338;-68
2022/04/23 15:04:40;;;;;;;18.60;8.05;;;23.80;37.80;;;;;;6136604;28;80928;-69
2022/04/23 15:07:41;;;;;;;15.05;6.85;;;23.90;38.00;;;;;;6135988;28;81199;-70
2022/04/23 15:10:41;;;;;;;12.88;6.78;;;23.90;37.90;;;;;;6136463;28;80315;-68
2022/04/23 15:13:42;;;;;;;9.30;5.18;;;23.80;37.80;;;;;;6160010;28;82239;-69
2022/04/23 15:16:43;;;;;;;8.23;5.30;;;23.80;37.50;;;;;;6159250;28;83600;-68
2022/04/23 15:19:44;;;;;;;9.35;5.22;;;23.70;37.60;;;;;;6159009;28;80814;-67
2022/04/23 15:22:46;;;;;;;6.60;4.78;;;23.70;37.60;;;;;;6143192;28;80539;-67
2022/04/23 15:25:46;;;;;;;7.30;5.10;;;23.70;37.90;;;;;;6152525;28;80422;-68
2022/04/23 15:28:47;;;;;;;9.57;5.07;;;23.70;38.10;;;;;;6159512;28;80549;-68
2022/04/23 15:31:47;;;;;;;6.45;4.30;;;23.70;38.30;;;;;;6158220;28;81793;-70
2022/04/23 15:34:48;;;;;;;6.22;3.92;;;23.70;38.30;;;;;;6159545;28;80276;-70
2022/04/23 15:37:49;;;;;;;7.57;4.68;;;23.70;38.20;;;;;;6159941;28;80153;-71
2022/04/23 15:40:49;;;;;;;14.18;5.22;;;23.70;39.00;;;;;;6156049;28;80579;-72
2022/04/23 15:43:50;;;;;;;7.72;4.65;;;23.70;39.20;;;;;;6158549;28;80459;-71
2022/04/23 15:46:50;;;;;;;5.82;4.10;;;23.70;39.10;;;;;;6157581;28;80842;-68
2022/04/23 15:49:51;;;;;;;9.68;5.10;;;23.70;39.00;;;;;;6154364;28;80956;-67
2022/04/23 15:52:51;;;;;;;7.63;4.20;;;23.70;39.10;;;;;;6158351;28;80642;-66
2022/04/23 15:55:52;;;;;;;6.10;4.07;;;23.70;38.70;;;;;;6155729;28;80636;-67
2022/04/23 15:58:53;;;;;;;5.38;4.13;;;23.70;38.90;;;;;;6158365;28;80120;-67
2022/04/23 16:01:53;;;;;;;7.13;4.00;;;23.70;39.00;;;;;;6151367;28;80346;-69
2022/04/23 16:04:54;;;;;;;6.22;3.60;;;23.70;38.70;;;;;;6157941;28;80348;-66
2022/04/23 16:07:54;;;;;;;5.03;3.53;;;23.70;38.70;;;;;;6158140;28;81046;-66
2022/04/23 16:10:55;;;;;;;4.93;3.38;;;23.70;38.90;;;;;;6159223;28;80673;-66
2022/04/23 16:13:56;;;;;;;6.20;3.17;;;23.70;38.80;;;;;;6159564;28;80640;-67
2022/04/23 16:16:56;;;;;;;4.28;3.25;;;23.70;38.70;;;;;;6159133;28;80843;-66
2022/04/23 16:19:57;;;;;;;4.15;3.28;;;23.70;38.60;;;;;;6159435;28;80388;-66
2022/04/23 16:22:57;;;;;;;4.10;3.28;;;23.70;38.40;;;;;;6157490;28;80470;-67
2022/04/23 16:25:58;;;;;;;8.80;3.65;;;23.70;38.90;;;;;;6158873;28;81564;-68